Change the Weather History Date:

Sunday, May 19, 2013

  Actual Average Record
Temperature  
Mean Temperature 58 °F -  
Max Temperature 69 °F 71 °F - ()
Min Temperature 46 °F 54 °F - ()
Degree Days  
Heating Degree Days 8    
Growing Degree Days 8 (Base 50)    
Moisture  
Dew Point 37 °F    
Average Humidity 46    
Maximum Humidity 71    
Minimum Humidity 16    
Precipitation  
Precipitation 0.00 in 0.11 in - ()
Sea Level Pressure  
Sea Level Pressure 30.02 in    
Wind  
Wind Speed 9 mph ()    
Max Wind Speed 18 mph    
Max Gust Speed -    
Visibility 19.0 miles    
Events      
T = Trace of Precipitation, MM = Missing Value Source: Averaged Metar Reports

Daily Weather History Graph

Daily Weather History Graph

Search for Another Location

Airport or City:

Trip Planner

Search our weather history database for the weather conditions in past years. The results will help you decide how hot, cold, wet, or windy it might be!

Date:

Astronomy

May. 19, 2013 Rise Set
Actual Time 6:22 AM AEST 5:04 PM AEST
Civil Twilight 5:57 AM AEST 5:29 PM AEST
Nautical Twilight 5:29 AM AEST 5:58 PM AEST
Astronomical Twilight 5:01 AM AEST 6:26 PM AEST
Moon 12:43 PM AEST (5/19) No Moon Set
Length of Visible Light 11h 31m
Length of Day
10h 42m
First Quarter, 59% of the Moon is Illuminated
May 19
First Quarter
May 25
Full
Jun 1
Last Quarter
Jun 9
New
Jun 17
First Quarter

Hourly Weather History & Observations

Time (AEST) Temp. Dew Point Humidity Pressure Visibility Wind Dir Wind Speed Gust Speed Precip Events Conditions
12:00 AM 54 °F 41 °F 50% 30.02 in 25 mi West 10.4 mph - -   Partly Cloudy
12:00 AM 53.6 °F 41.0 °F 62% 30.01 in - West 10.4 mph - N/A   Clear
12:30 AM 51.8 °F 41.0 °F 67% 30.01 in - West 9.2 mph - N/A   Clear
1:00 AM 52 °F 41 °F 57% 30.01 in - West 10.4 mph - -  
1:00 AM 51.8 °F 41.0 °F 67% 30.01 in - West 10.4 mph - N/A   Clear
1:30 AM 51.8 °F 41.0 °F 67% 30.01 in - WSW 9.2 mph - N/A   Clear
2:00 AM 51.8 °F 39.2 °F 62% 30.01 in - WNW 1.2 mph - N/A   Clear
2:30 AM 50.0 °F 39.2 °F 66% 30.01 in - WSW 5.8 mph - N/A   Clear
3:00 AM 53 °F 38 °F 46% 30.00 in 25 mi WNW 6.9 mph - -   Partly Cloudy
3:00 AM 51.8 °F 39.2 °F 62% 29.98 in - WNW 6.9 mph - N/A   Clear
3:30 AM 50.0 °F 39.2 °F 66% 30.01 in - West 4.6 mph - N/A   Clear
4:00 AM 49 °F 39 °F 59% 30.01 in - WSW 9.2 mph - -  
4:00 AM 48.2 °F 39.2 °F 71% 30.01 in - WSW 9.2 mph - N/A   Clear
4:30 AM 48.2 °F 39.2 °F 71% 30.01 in - WSW 6.9 mph - N/A   Clear
5:00 AM 48.2 °F 39.2 °F 71% 30.01 in - WSW 9.2 mph - N/A   Clear
5:30 AM 50.0 °F 37.4 °F 62% 30.01 in - WSW 10.4 mph - N/A   Clear
6:00 AM 51 °F 37 °F 47% 30.04 in 25 mi WSW 8.1 mph - -   Partly Cloudy
6:00 AM 50.0 °F 37.4 °F 62% 30.04 in - WSW 8.1 mph - N/A   Clear
6:30 AM 50.0 °F 37.4 °F 62% 30.04 in - West 11.5 mph - N/A   Clear
7:00 AM 52 °F 38 °F 48% 30.05 in - WSW 9.2 mph - -  
7:00 AM 51.8 °F 39.2 °F 62% 30.04 in - WSW 9.2 mph - N/A   Clear
7:30 AM 55.4 °F 39.2 °F 54% 30.06 in - West 8.1 mph - N/A   Clear
8:00 AM 57.2 °F 37.4 °F 48% 30.06 in - WSW 11.5 mph - N/A   Clear
8:30 AM 59.0 °F 35.6 °F 42% 30.06 in - WSW 12.7 mph - N/A   Clear
9:00 AM 61 °F 35 °F 26% 30.08 in 25 mi SW 16.1 mph - -   Partly Cloudy
9:00 AM 60.8 °F 35.6 °F 39% 30.06 in - SW 16.1 mph - N/A   Clear
9:30 AM 62.6 °F 33.8 °F 34% 30.06 in - WSW 18.4 mph - N/A   Clear
10:00 AM 63 °F 33 °F 21% 30.07 in - WSW 17.3 mph - -  
10:00 AM 62.6 °F 33.8 °F 34% 30.06 in - WSW 17.3 mph - N/A   Clear
10:30 AM 64.4 °F 33.8 °F 32% 30.04 in - WSW 17.3 mph - N/A   Clear
11:00 AM 64.4 °F 33.8 °F 32% 30.04 in - West 17.3 mph - N/A   Clear
11:30 AM 64.4 °F 33.8 °F 32% 30.04 in - WSW 18.4 mph - N/A   Clear
12:00 PM 67 °F 36 °F 20% 30.02 in 25 mi WSW 17.3 mph - -   Partly Cloudy
12:00 PM 66.2 °F 35.6 °F 32% 30.01 in - WSW 17.3 mph - N/A   Clear
12:30 PM 68.0 °F 33.8 °F 28% 30.01 in - WSW 17.3 mph - N/A   Clear
1:00 PM 68 °F 35 °F 18% 30.00 in - SW 17.3 mph - -  
1:00 PM 68.0 °F 33.8 °F 28% 29.98 in - SW 17.3 mph - N/A   Clear
1:30 PM 68.0 °F 32.0 °F 26% 29.98 in - SW 15.0 mph - N/A   Clear
2:00 PM 68.0 °F 33.8 °F 28% 29.98 in - WSW 13.8 mph - N/A   Clear
2:30 PM 69.8 °F 35.6 °F 28% 29.98 in - WSW 13.8 mph - N/A   Clear
3:00 PM 69 °F 33 °F 16% 29.98 in 25 mi WSW 15.0 mph - -   Partly Cloudy
3:00 PM 69.8 °F 33.8 °F 27% 29.98 in - WSW 15.0 mph - N/A   Clear
3:30 PM 69.8 °F 33.8 °F 27% 29.98 in - WSW 13.8 mph - N/A   Clear
4:00 PM 68 °F 33 °F 17% 29.98 in - WSW 11.5 mph - -  
4:00 PM 68.0 °F 33.8 °F 28% 29.98 in - WSW 11.5 mph - N/A   Clear
4:30 PM 66.2 °F 33.8 °F 30% 29.98 in - West 12.7 mph - N/A   Clear
5:00 PM 64.4 °F 35.6 °F 34% 29.98 in - West 9.2 mph - N/A   Clear
5:30 PM 60.8 °F 37.4 °F 42% 29.98 in - NW 8.1 mph - N/A   Clear
6:00 PM 57 °F 40 °F 41% 30.00 in 25 mi SW 5.8 mph - -   Partly Cloudy
6:00 PM 57.2 °F 39.2 °F 51% 29.98 in - SW 5.8 mph - N/A   Clear
6:30 PM 57.2 °F 39.2 °F 51% 30.01 in - NW 8.1 mph - N/A   Clear
7:00 PM 58 °F 38 °F 36% 30.02 in - West 8.1 mph - -  
7:00 PM 59.0 °F 39.2 °F 48% 30.01 in - West 8.1 mph - N/A   Clear
7:30 PM 59.0 °F 37.4 °F 45% 30.04 in - West 5.8 mph - N/A   Clear
8:00 PM 59.0 °F 37.4 °F 45% 30.04 in - NW 6.9 mph - N/A   Clear
8:30 PM 55.4 °F 41.0 °F 58% 30.04 in - WNW 5.8 mph - N/A   Clear
9:00 PM 57 °F 38 °F 37% 30.05 in 19 mi WSW 6.9 mph - -   Partly Cloudy
9:00 PM 57.2 °F 37.4 °F 48% 30.04 in - WSW 6.9 mph - N/A   Clear
9:30 PM 53.6 °F 41.0 °F 62% 30.04 in - SW 5.8 mph - N/A   Clear
10:00 PM 52 °F 40 °F 55% 30.05 in - SW 3.5 mph - -  
10:00 PM 51.8 °F 41.0 °F 67% 30.04 in - SW 3.5 mph - N/A   Clear
10:30 PM 53.6 °F 39.2 °F 58% 30.04 in - SSW 5.8 mph - N/A   Clear
11:00 PM 51.8 °F 39.2 °F 62% 30.04 in - SSW 4.6 mph - N/A   Clear
11:30 PM 51.8 °F 39.2 °F 62% 30.04 in - SW 3.5 mph - N/A   Clear